Terminal Aerodrome Forecast
Issued by NWS Tallahassee, FL

Home | Current Version | Previous Version | Text Only | Print | Product List | Glossary On
Versions: 1 2 3 4 5 6 7 8 9 10 11 12 13 14
000
FTUS42 KTAE 030527
TAFTLH
TAF
KTLH 030527Z 0306/0406 00000KT P6SM SCT120
     FM030900 00000KT 5SM BR FEW030
     FM031300 19005KT P6SM SCT035
     FM031700 18006KT P6SM VCTS SCT040CB
      TEMPO 0320/0324 VRB10G20KT P6SM TSRA BKN035CB
     FM040000 VRB03KT P6SM BKN120=

USA.gov is the U.S. government's official web portal to all federal, state and local government web resources and services.